sim
Sign-in with your pilot id or email,
or register
Callsign
Passwort

Schedule Details

Flight Number: OEO4599
Departure: Salzburg Airport (LOWS) at 11:30
Arrival: Bremen Airport (EDDW) at 13:00

Weather Information
Getting current METAR information for LOWS 101750Z 16010KT 9999 -SHRA FEW008 FEW050CB BKN060 BKN110 18/16 Q1015 RETS TEMPO NSW
Getting current METAR information for EDDW 101750Z 29006KT 9999 FEW022 15/10 Q1016 NOSIG

Schedule Frequency

Route Map